Time;durP1;ratioP1;P1;durP2;ratioP2;P2;SDS_P1;SDS_P2;PMS_P1;PMS_P2;Temp;Humidity;BMP_temperature;BMP_pressure;BME280_temperature;BME280_humidity;BME280_pressure;Samples;Min_cycle;Max_cycle;Signal;HPM_P1;HPM_P2
2023/09/13 00:01:08;;;;;;;145.43;17.77;;;;;;;;;;5064260;28;20028;-44
2023/09/13 00:03:35;;;;;;;165.25;20.23;;;;;;;;;;5077540;28;20040;-43
2023/09/13 00:06:03;;;;;;;178.65;21.00;;;;;;;;;;5077131;28;20028;-42
2023/09/13 00:08:30;;;;;;;158.63;20.55;;;;;;;;;;5076530;28;20032;-38
2023/09/13 00:11:03;;;;;;;181.35;22.55;;;;;;;;;;5087732;28;20036;-37
2023/09/13 00:13:32;;;;;;;156.98;21.33;;;;;;;;;;5074013;28;20079;-39
2023/09/13 00:15:59;;;;;;;174.30;21.83;;;;;;;;;;5083462;28;20169;-39
2023/09/13 00:18:26;;;;;;;150.10;20.70;;;;;;;;;;5064803;28;20070;-39
2023/09/13 00:20:53;;;;;;;158.85;21.67;;;;;;;;;;5062676;28;20029;-39
2023/09/13 00:23:21;;;;;;;151.73;21.83;;;;;;;;;;5039935;28;20455;-39
2023/09/13 00:25:48;;;;;;;166.40;22.80;;;;;;;;;;5060821;28;20179;-41
2023/09/13 00:28:16;;;;;;;143.05;20.98;;;;;;;;;;5058625;28;20040;-37
2023/09/13 00:30:43;;;;;;;144.00;22.55;;;;;;;;;;5056354;28;20032;-38
2023/09/13 00:33:10;;;;;;;156.60;21.95;;;;;;;;;;5053833;28;20560;-40
2023/09/13 00:35:37;;;;;;;161.05;21.15;;;;;;;;;;5062888;28;20085;-40
2023/09/13 00:38:05;;;;;;;141.63;19.50;;;;;;;;;;5060025;28;20044;-40
2023/09/13 00:40:32;;;;;;;123.60;19.20;;;;;;;;;;5054380;28;20033;-38
2023/09/13 00:42:59;;;;;;;122.25;19.15;;;;;;;;;;5040967;28;20136;-38
2023/09/13 00:45:26;;;;;;;134.40;19.35;;;;;;;;;;5051553;28;20032;-40
2023/09/13 00:47:53;;;;;;;122.28;19.23;;;;;;;;;;5042751;28;20029;-38
2023/09/13 00:50:20;;;;;;;127.57;19.25;;;;;;;;;;5038442;28;20029;-40
2023/09/13 00:52:48;;;;;;;128.27;18.83;;;;;;;;;;5068718;28;20032;-38
2023/09/13 00:55:16;;;;;;;149.15;19.98;;;;;;;;;;5070493;28;20054;-38
2023/09/13 00:57:43;;;;;;;132.27;19.50;;;;;;;;;;5060196;28;20114;-41
2023/09/13 01:00:11;;;;;;;129.43;18.40;;;;;;;;;;5047889;28;20158;-38
2023/09/13 01:02:42;;;;;;;121.88;18.83;;;;;;;;;;5051235;28;20151;-40
2023/09/13 01:05:09;;;;;;;154.45;20.83;;;;;;;;;;5056027;28;20036;-38
2023/09/13 01:07:38;;;;;;;166.38;20.48;;;;;;;;;;5052294;28;20033;-40
2023/09/13 01:10:05;;;;;;;204.43;25.50;;;;;;;;;;5051190;28;20409;-38
2023/09/13 01:12:32;;;;;;;206.70;24.73;;;;;;;;;;5051725;28;20037;-39
2023/09/13 01:15:01;;;;;;;200.75;24.02;;;;;;;;;;5051992;28;20082;-39
2023/09/13 01:17:50;;;;;;;157.38;21.10;;;;;;;;;;5052683;28;20039;-41
2023/09/13 01:20:20;;;;;;;172.30;22.95;;;;;;;;;;5040596;28;20312;-39
2023/09/13 01:22:56;;;;;;;220.63;25.48;;;;;;;;;;5037474;28;20076;-40
2023/09/13 01:25:35;;;;;;;173.55;23.50;;;;;;;;;;5060271;28;20075;-41
2023/09/13 01:28:12;;;;;;;228.70;27.65;;;;;;;;;;5045405;28;20086;-40
2023/09/13 01:30:40;;;;;;;247.43;28.33;;;;;;;;;;5070959;28;20044;-40
2023/09/13 01:33:07;;;;;;;243.80;28.30;;;;;;;;;;5050468;28;20463;-40
2023/09/13 01:35:34;;;;;;;224.43;26.60;;;;;;;;;;5051873;28;20360;-38
2023/09/13 01:38:01;;;;;;;214.10;24.73;;;;;;;;;;5054781;28;20067;-38
2023/09/13 01:40:30;;;;;;;218.52;26.60;;;;;;;;;;5047973;28;20033;-41
2023/09/13 01:42:57;;;;;;;182.13;24.25;;;;;;;;;;5038098;28;20486;-40
2023/09/13 01:45:24;;;;;;;179.73;23.27;;;;;;;;;;5074890;28;20029;-38
2023/09/13 01:47:53;;;;;;;180.75;23.15;;;;;;;;;;5079090;28;20024;-38
2023/09/13 01:50:20;;;;;;;172.55;22.92;;;;;;;;;;5082192;28;20033;-40
2023/09/13 01:52:47;;;;;;;128.32;18.75;;;;;;;;;;5079989;28;20493;-38
2023/09/13 01:55:14;;;;;;;119.00;18.27;;;;;;;;;;5078111;28;20041;-39
2023/09/13 01:57:41;;;;;;;126.55;19.15;;;;;;;;;;5074832;28;20024;-37
2023/09/13 02:00:09;;;;;;;156.45;20.38;;;;;;;;;;5072055;28;20033;-38
2023/09/13 02:02:36;;;;;;;138.32;19.65;;;;;;;;;;5071232;28;20111;-39
2023/09/13 02:05:03;;;;;;;143.27;19.65;;;;;;;;;;5070521;28;20032;-38
2023/09/13 02:07:30;;;;;;;139.23;20.20;;;;;;;;;;5070935;28;20528;-37
2023/09/13 02:09:57;;;;;;;132.77;19.33;;;;;;;;;;5070962;28;20115;-37
2023/09/13 02:12:24;;;;;;;145.35;21.05;;;;;;;;;;5070312;28;20116;-38
2023/09/13 02:14:51;;;;;;;155.45;22.17;;;;;;;;;;5071088;28;20032;-37
2023/09/13 02:17:18;;;;;;;164.15;22.33;;;;;;;;;;5071227;28;20032;-38
2023/09/13 02:19:49;;;;;;;159.30;22.75;;;;;;;;;;5070924;28;20086;-38
2023/09/13 02:22:16;;;;;;;141.60;21.10;;;;;;;;;;5071231;28;20032;-37
2023/09/13 02:24:43;;;;;;;131.68;21.45;;;;;;;;;;5068432;28;20037;-37
2023/09/13 02:27:10;;;;;;;138.07;21.13;;;;;;;;;;5071402;28;20093;-38
2023/09/13 02:29:37;;;;;;;183.77;24.02;;;;;;;;;;5071712;28;20543;-39
2023/09/13 02:32:04;;;;;;;142.48;21.55;;;;;;;;;;5071785;28;20486;-38
2023/09/13 02:34:31;;;;;;;154.00;21.80;;;;;;;;;;5071627;28;20482;-39
2023/09/13 02:36:58;;;;;;;146.23;21.25;;;;;;;;;;5071716;28;20122;-38
2023/09/13 02:39:38;;;;;;;170.35;22.52;;;;;;;;;;5071723;28;20021;-39
2023/09/13 02:42:05;;;;;;;164.90;21.85;;;;;;;;;;5071485;28;20021;-38
2023/09/13 02:44:33;;;;;;;168.10;24.02;;;;;;;;;;5071446;28;20048;-39
2023/09/13 02:47:01;;;;;;;142.93;22.33;;;;;;;;;;5071588;28;20108;-38
2023/09/13 02:49:28;;;;;;;147.63;22.15;;;;;;;;;;5071596;28;20030;-38
2023/09/13 02:51:55;;;;;;;149.77;22.63;;;;;;;;;;5071604;28;20051;-38
2023/09/13 02:54:22;;;;;;;133.45;23.15;;;;;;;;;;5071160;28;20031;-38
2023/09/13 02:56:50;;;;;;;140.15;21.88;;;;;;;;;;5071338;28;20032;-38
2023/09/13 02:59:17;;;;;;;125.90;23.38;;;;;;;;;;5071436;28;20067;-39
2023/09/13 03:01:44;;;;;;;127.45;20.63;;;;;;;;;;5071156;28;20029;-39
2023/09/13 03:04:12;;;;;;;126.57;22.35;;;;;;;;;;5071376;28;20047;-39
2023/09/13 03:06:39;;;;;;;121.15;23.35;;;;;;;;;;5053393;28;20094;-38
2023/09/13 03:09:07;;;;;;;123.20;23.30;;;;;;;;;;5071275;28;20486;-39
2023/09/13 03:11:38;;;;;;;107.32;21.73;;;;;;;;;;5071147;28;20103;-37
2023/09/13 03:14:08;;;;;;;114.00;21.67;;;;;;;;;;5071053;28;20032;-37
2023/09/13 03:16:35;;;;;;;126.90;23.77;;;;;;;;;;5071252;28;20024;-37
2023/09/13 03:19:02;;;;;;;114.43;22.52;;;;;;;;;;5071283;28;20119;-37
2023/09/13 03:21:29;;;;;;;122.10;21.15;;;;;;;;;;5071140;28;20098;-37
2023/09/13 03:23:56;;;;;;;119.00;21.30;;;;;;;;;;5070875;28;20049;-37
2023/09/13 03:26:24;;;;;;;111.55;21.65;;;;;;;;;;5074470;28;20831;-37
2023/09/13 03:28:52;;;;;;;92.03;20.63;;;;;;;;;;5075219;28;20024;-37
2023/09/13 03:31:20;;;;;;;112.53;22.13;;;;;;;;;;5075186;28;20028;-37
2023/09/13 03:33:48;;;;;;;103.22;22.00;;;;;;;;;;5075006;28;20379;-37
2023/09/13 03:36:16;;;;;;;104.57;23.48;;;;;;;;;;5074993;28;20086;-37
2023/09/13 03:38:43;;;;;;;105.80;21.98;;;;;;;;;;5075056;28;20360;-37
2023/09/13 03:41:12;;;;;;;102.22;21.52;;;;;;;;;;5074877;28;20040;-37
2023/09/13 03:43:39;;;;;;;94.13;20.50;;;;;;;;;;5084957;28;20051;-37
2023/09/13 03:46:06;;;;;;;76.85;18.92;;;;;;;;;;5095083;28;20104;-37
2023/09/13 03:48:34;;;;;;;84.53;18.83;;;;;;;;;;5094966;28;20036;-37
2023/09/13 03:51:01;;;;;;;76.28;20.08;;;;;;;;;;5095083;28;20120;-37
2023/09/13 03:53:28;;;;;;;77.97;20.25;;;;;;;;;;5095039;28;20032;-38
2023/09/13 03:55:56;;;;;;;81.68;20.00;;;;;;;;;;5094942;28;20063;-37
2023/09/13 03:58:24;;;;;;;67.70;18.73;;;;;;;;;;5094713;28;20028;-37
2023/09/13 04:00:51;;;;;;;68.00;18.88;;;;;;;;;;5094893;28;20036;-37
2023/09/13 04:03:18;;;;;;;66.13;18.88;;;;;;;;;;5094837;28;20209;-37
2023/09/13 04:05:45;;;;;;;70.15;17.15;;;;;;;;;;5094703;28;20498;-37
2023/09/13 04:08:12;;;;;;;61.70;17.15;;;;;;;;;;5094730;28;20106;-37
2023/09/13 04:10:39;;;;;;;48.78;15.95;;;;;;;;;;5094675;28;20099;-37
2023/09/13 04:13:06;;;;;;;63.95;16.08;;;;;;;;;;5094708;28;20048;-38
2023/09/13 04:15:34;;;;;;;54.75;15.98;;;;;;;;;;5094421;28;20059;-37
2023/09/13 04:18:01;;;;;;;50.53;13.95;;;;;;;;;;5094664;28;20040;-37
2023/09/13 04:20:28;;;;;;;47.45;15.05;;;;;;;;;;5094541;28;20085;-37
2023/09/13 04:22:55;;;;;;;48.72;13.85;;;;;;;;;;5094426;28;20043;-38
2023/09/13 04:25:22;;;;;;;44.30;13.02;;;;;;;;;;5094335;28;20432;-38
2023/09/13 04:27:49;;;;;;;41.08;12.65;;;;;;;;;;5094451;28;20047;-37
2023/09/13 04:30:16;;;;;;;57.65;13.48;;;;;;;;;;5076029;28;20147;-37
2023/09/13 04:32:43;;;;;;;41.10;12.43;;;;;;;;;;5094116;28;20028;-37
2023/09/13 04:35:11;;;;;;;47.20;12.70;;;;;;;;;;5094107;28;20020;-37
2023/09/13 04:37:38;;;;;;;43.13;12.05;;;;;;;;;;5093861;28;20436;-37
2023/09/13 04:40:06;;;;;;;47.03;13.75;;;;;;;;;;5094184;28;20127;-37
2023/09/13 04:42:37;;;;;;;49.08;12.68;;;;;;;;;;5093726;28;20032;-37
2023/09/13 04:45:05;;;;;;;47.97;13.10;;;;;;;;;;5094032;28;20490;-37
2023/09/13 04:47:32;;;;;;;48.13;11.48;;;;;;;;;;5093994;28;20107;-37
2023/09/13 04:49:59;;;;;;;36.55;10.50;;;;;;;;;;5093975;28;20482;-37
2023/09/13 04:52:26;;;;;;;42.83;12.00;;;;;;;;;;5093838;28;20097;-37
2023/09/13 04:54:53;;;;;;;42.70;11.27;;;;;;;;;;5093700;28;20028;-37
2023/09/13 04:57:19;;;;;;;40.17;11.80;;;;;;;;;;5093888;28;20064;-37
2023/09/13 04:59:51;;;;;;;45.22;11.27;;;;;;;;;;5093765;28;20035;-37
2023/09/13 05:02:18;;;;;;;36.93;10.97;;;;;;;;;;5093628;28;20044;-37
2023/09/13 05:04:45;;;;;;;46.45;10.95;;;;;;;;;;5093626;28;20028;-37
2023/09/13 05:07:12;;;;;;;40.17;10.55;;;;;;;;;;5093633;28;20032;-37
2023/09/13 05:09:40;;;;;;;33.60;11.00;;;;;;;;;;5093612;28;20527;-37
2023/09/13 05:12:07;;;;;;;31.30;10.77;;;;;;;;;;5093282;28;20080;-37
2023/09/13 05:14:36;;;;;;;34.38;10.98;;;;;;;;;;5093385;28;20024;-37
2023/09/13 05:17:03;;;;;;;38.40;11.55;;;;;;;;;;5093077;28;20500;-37
2023/09/13 05:19:30;;;;;;;35.42;10.38;;;;;;;;;;5093274;28;20055;-37
2023/09/13 05:21:57;;;;;;;37.55;11.27;;;;;;;;;;5093209;28;20020;-37
2023/09/13 05:24:24;;;;;;;47.75;11.27;;;;;;;;;;5093003;28;20385;-37
2023/09/13 05:26:51;;;;;;;36.55;10.63;;;;;;;;;;5093216;28;20123;-37
2023/09/13 05:29:18;;;;;;;35.40;10.25;;;;;;;;;;5093092;28;20116;-37
2023/09/13 05:31:45;;;;;;;29.67;9.68;;;;;;;;;;5092999;28;20092;-37
2023/09/13 05:34:12;;;;;;;34.63;8.93;;;;;;;;;;5093097;28;20081;-37
2023/09/13 05:36:41;;;;;;;34.67;9.05;;;;;;;;;;5093024;28;20063;-37
2023/09/13 05:39:08;;;;;;;33.42;9.35;;;;;;;;;;5092715;28;20123;-37
2023/09/13 05:41:37;;;;;;;30.58;9.50;;;;;;;;;;5093002;28;20081;-37
2023/09/13 05:44:07;;;;;;;36.17;8.77;;;;;;;;;;5092660;28;20040;-37
2023/09/13 05:46:34;;;;;;;33.72;9.68;;;;;;;;;;5092817;28;20035;-37
2023/09/13 05:49:01;;;;;;;25.63;8.50;;;;;;;;;;5092229;28;20680;-37
2023/09/13 05:51:27;;;;;;;25.17;8.27;;;;;;;;;;5092715;28;20478;-37
2023/09/13 05:53:54;;;;;;;26.27;7.68;;;;;;;;;;5092564;28;20036;-37
2023/09/13 05:56:21;;;;;;;19.67;7.25;;;;;;;;;;5092561;28;20542;-37
2023/09/13 05:58:48;;;;;;;22.13;7.45;;;;;;;;;;5092591;28;20115;-37
2023/09/13 06:01:16;;;;;;;22.45;7.43;;;;;;;;;;5085975;28;20041;-38
2023/09/13 06:03:43;;;;;;;18.83;6.50;;;;;;;;;;5054090;28;20075;-39
2023/09/13 06:06:11;;;;;;;18.65;6.45;;;;;;;;;;5072203;28;20024;-39
2023/09/13 06:08:38;;;;;;;18.45;6.35;;;;;;;;;;5072389;28;20577;-39
2023/09/13 06:11:05;;;;;;;16.10;6.65;;;;;;;;;;5072203;28;20562;-39
2023/09/13 06:13:32;;;;;;;14.93;6.10;;;;;;;;;;5072168;28;20074;-39
2023/09/13 06:15:59;;;;;;;17.02;5.10;;;;;;;;;;5072111;28;20086;-39
2023/09/13 06:18:26;;;;;;;13.20;5.53;;;;;;;;;;5072044;28;20481;-38
2023/09/13 06:20:54;;;;;;;16.58;5.50;;;;;;;;;;5071975;28;20032;-37
2023/09/13 06:23:35;;;;;;;17.40;5.28;;;;;;;;;;5071593;28;20406;-39
2023/09/13 06:26:02;;;;;;;17.10;5.50;;;;;;;;;;5071972;28;20028;-38
2023/09/13 06:28:29;;;;;;;13.57;4.78;;;;;;;;;;5071757;28;20028;-39
2023/09/13 06:31:00;;;;;;;16.95;5.15;;;;;;;;;;5071773;28;20048;-37
2023/09/13 06:33:27;;;;;;;14.48;4.72;;;;;;;;;;5071846;28;20024;-37
2023/09/13 06:35:57;;;;;;;14.30;4.90;;;;;;;;;;5071652;28;20028;-37
2023/09/13 06:38:24;;;;;;;14.60;4.72;;;;;;;;;;5071858;28;20029;-37
2023/09/13 06:40:52;;;;;;;14.25;4.70;;;;;;;;;;5071654;28;20032;-37
2023/09/13 06:43:19;;;;;;;15.40;4.63;;;;;;;;;;5071302;28;20628;-37
2023/09/13 06:45:47;;;;;;;17.58;4.97;;;;;;;;;;5071525;28;20067;-37
2023/09/13 06:48:15;;;;;;;16.33;4.22;;;;;;;;;;5071630;28;20031;-37
2023/09/13 06:50:42;;;;;;;19.05;5.30;;;;;;;;;;5071435;28;20104;-37
2023/09/13 06:53:09;;;;;;;15.63;4.18;;;;;;;;;;5071602;28;20032;-37
2023/09/13 06:55:36;;;;;;;21.13;4.35;;;;;;;;;;5071448;28;20033;-37
2023/09/13 06:58:05;;;;;;;13.63;4.55;;;;;;;;;;5071446;28;20029;-37
2023/09/13 07:00:32;;;;;;;18.42;4.15;;;;;;;;;;5070212;28;20039;-37
2023/09/13 07:03:00;;;;;;;11.77;3.65;;;;;;;;;;5071388;28;20559;-37
2023/09/13 07:05:27;;;;;;;43.17;5.35;;;;;;;;;;5062554;28;20495;-37
2023/09/13 07:07:54;;;;;;;48.67;5.97;;;;;;;;;;5071333;28;20022;-37
2023/09/13 07:10:20;;;;;;;54.35;5.93;;;;;;;;;;5071240;28;20120;-40
2023/09/13 07:12:47;;;;;;;69.78;6.45;;;;;;;;;;5071277;28;20032;-38
2023/09/13 07:15:14;;;;;;;64.50;6.75;;;;;;;;;;5071270;28;20071;-37
2023/09/13 07:17:42;;;;;;;43.67;6.30;;;;;;;;;;5071394;28;20120;-37
2023/09/13 07:20:10;;;;;;;41.30;5.40;;;;;;;;;;5070968;28;20390;-37
2023/09/13 07:22:38;;;;;;;43.22;5.25;;;;;;;;;;5070972;28;20020;-37
2023/09/13 07:25:05;;;;;;;24.45;4.50;;;;;;;;;;5071210;28;20044;-37
2023/09/13 07:27:32;;;;;;;32.58;4.53;;;;;;;;;;5071279;28;20112;-37
2023/09/13 07:29:59;;;;;;;27.45;4.53;;;;;;;;;;5071298;28;20042;-37
2023/09/13 07:32:26;;;;;;;26.45;4.50;;;;;;;;;;5071304;28;20140;-37
2023/09/13 07:34:53;;;;;;;27.20;4.10;;;;;;;;;;5070993;28;20032;-37
2023/09/13 07:37:20;;;;;;;23.75;4.47;;;;;;;;;;5071188;28;20090;-37
2023/09/13 07:39:47;;;;;;;19.45;4.25;;;;;;;;;;5071153;28;20024;-37
2023/09/13 07:42:14;;;;;;;19.10;4.07;;;;;;;;;;5070960;28;20040;-37
2023/09/13 07:44:41;;;;;;;14.02;3.30;;;;;;;;;;5051971;28;20079;-37
2023/09/13 07:47:08;;;;;;;15.60;3.55;;;;;;;;;;5051100;28;20059;-37
2023/09/13 07:49:35;;;;;;;16.73;4.00;;;;;;;;;;5051051;28;20029;-37
2023/09/13 07:52:02;;;;;;;15.32;3.72;;;;;;;;;;5051037;28;20032;-37
2023/09/13 07:54:29;;;;;;;13.15;3.75;;;;;;;;;;5050863;28;20037;-37
2023/09/13 07:56:56;;;;;;;15.65;3.30;;;;;;;;;;5050979;28;20096;-37
2023/09/13 07:59:23;;;;;;;9.68;3.22;;;;;;;;;;5050992;28;20025;-37
2023/09/13 08:01:50;;;;;;;15.10;3.22;;;;;;;;;;5050707;28;20473;-37
2023/09/13 08:04:18;;;;;;;13.50;2.90;;;;;;;;;;5050722;28;20033;-38
2023/09/13 08:06:45;;;;;;;15.40;3.50;;;;;;;;;;5050620;28;20036;-38
2023/09/13 08:09:15;;;;;;;8.05;2.72;;;;;;;;;;5050864;28;20025;-39
2023/09/13 08:11:43;;;;;;;12.23;3.00;;;;;;;;;;5052494;28;20479;-39
2023/09/13 08:14:10;;;;;;;15.68;3.00;;;;;;;;;;5054402;28;20557;-38
2023/09/13 08:16:37;;;;;;;18.25;2.97;;;;;;;;;;5054457;28;20078;-39
2023/09/13 08:19:04;;;;;;;10.55;2.85;;;;;;;;;;5054275;28;20522;-38
2023/09/13 08:21:30;;;;;;;7.03;2.80;;;;;;;;;;5054253;28;20102;-39
2023/09/13 08:23:58;;;;;;;8.43;2.90;;;;;;;;;;5053956;28;20029;-39
2023/09/13 08:26:25;;;;;;;7.38;3.00;;;;;;;;;;5054197;28;20075;-38
2023/09/13 08:28:51;;;;;;;9.25;2.80;;;;;;;;;;5054194;28;20028;-38
2023/09/13 08:31:18;;;;;;;8.75;2.70;;;;;;;;;;5054023;28;20033;-39
2023/09/13 08:33:46;;;;;;;7.28;2.45;;;;;;;;;;5053958;28;20446;-39
2023/09/13 08:36:13;;;;;;;8.07;3.00;;;;;;;;;;5053843;28;20045;-38
2023/09/13 08:38:40;;;;;;;8.55;2.40;;;;;;;;;;5054048;28;20096;-38
2023/09/13 08:41:07;;;;;;;8.57;2.33;;;;;;;;;;5053946;28;20033;-39
2023/09/13 08:43:35;;;;;;;4.68;2.17;;;;;;;;;;5063082;28;20045;-38
2023/09/13 08:46:02;;;;;;;6.63;1.85;;;;;;;;;;5073801;28;20021;-38
2023/09/13 08:48:29;;;;;;;4.85;2.00;;;;;;;;;;5073672;28;20024;-38
2023/09/13 08:50:56;;;;;;;11.15;2.53;;;;;;;;;;5073846;28;20382;-38
2023/09/13 08:53:23;;;;;;;23.55;2.55;;;;;;;;;;5073551;28;20032;-39
2023/09/13 08:55:51;;;;;;;15.80;2.25;;;;;;;;;;5073577;28;20482;-38
2023/09/13 08:58:18;;;;;;;20.88;2.53;;;;;;;;;;5073565;28;20085;-39
2023/09/13 09:00:47;;;;;;;18.02;2.50;;;;;;;;;;5073420;28;20043;-38
2023/09/13 09:03:16;;;;;;;11.98;2.45;;;;;;;;;;5073397;28;20075;-38
2023/09/13 09:05:43;;;;;;;9.68;2.45;;;;;;;;;;5073442;28;20028;-38
2023/09/13 09:08:10;;;;;;;17.65;2.58;;;;;;;;;;5073520;28;20121;-38
2023/09/13 09:10:37;;;;;;;14.50;2.42;;;;;;;;;;5072585;28;20063;-39
2023/09/13 09:13:05;;;;;;;8.70;2.30;;;;;;;;;;5073314;28;20117;-38
2023/09/13 09:15:34;;;;;;;9.48;2.20;;;;;;;;;;5073109;28;20024;-38
2023/09/13 09:18:03;;;;;;;9.38;2.00;;;;;;;;;;5072979;28;20024;-37
2023/09/13 09:20:31;;;;;;;9.35;2.00;;;;;;;;;;5071905;28;20059;-38
2023/09/13 09:23:01;;;;;;;10.95;2.33;;;;;;;;;;5070830;28;20033;-37
2023/09/13 09:25:30;;;;;;;8.55;2.30;;;;;;;;;;5072960;28;20089;-37
2023/09/13 09:27:57;;;;;;;12.07;2.97;;;;;;;;;;5072829;28;20024;-37
2023/09/13 09:30:33;;;;;;;20.15;3.40;;;;;;;;;;5072606;28;20028;-39
2023/09/13 09:33:01;;;;;;;15.02;2.95;;;;;;;;;;5071393;28;20040;-37
2023/09/13 09:35:28;;;;;;;11.20;3.00;;;;;;;;;;5070926;28;20081;-38
2023/09/13 09:37:55;;;;;;;18.50;2.88;;;;;;;;;;5071312;28;20025;-38
2023/09/13 09:40:22;;;;;;;17.67;3.25;;;;;;;;;;5071466;28;20036;-37
2023/09/13 09:42:53;;;;;;;9.48;2.67;;;;;;;;;;5071099;28;20048;-37
2023/09/13 09:45:20;;;;;;;12.90;2.97;;;;;;;;;;5071613;28;20039;-37
2023/09/13 09:47:47;;;;;;;15.98;3.15;;;;;;;;;;5071775;28;20499;-37
2023/09/13 09:50:15;;;;;;;17.15;3.10;;;;;;;;;;5071797;28;20030;-37
2023/09/13 09:52:43;;;;;;;21.58;3.60;;;;;;;;;;5071713;28;20042;-39
2023/09/13 09:55:15;;;;;;;31.85;4.05;;;;;;;;;;5071885;28;20031;-39
2023/09/13 09:57:41;;;;;;;;;;;;;;;;;;5070000;28;20115;-38
2023/09/13 10:00:10;;;;;;;21.80;4.30;;;;;;;;;;5071509;28;19920;-37
2023/09/13 10:02:37;;;;;;;20.05;4.03;;;;;;;;;;5068652;28;20035;-37
2023/09/13 10:05:05;;;;;;;20.25;4.70;;;;;;;;;;5070379;28;20027;-37
2023/09/13 10:07:42;;;;;;;25.15;5.10;;;;;;;;;;5070402;28;20032;-37
2023/09/13 10:10:12;;;;;;;18.55;4.50;;;;;;;;;;5072104;28;20131;-37
2023/09/13 10:12:47;;;;;;;17.98;4.75;;;;;;;;;;5071423;28;20528;-37
2023/09/13 10:15:15;;;;;;;19.40;4.25;;;;;;;;;;5071777;28;20040;-36
2023/09/13 10:17:44;;;;;;;23.08;5.22;;;;;;;;;;5070391;28;20047;-39
2023/09/13 10:20:14;;;;;;;18.08;4.47;;;;;;;;;;5071558;28;20021;-37
2023/09/13 10:22:43;;;;;;;17.50;5.22;;;;;;;;;;5071457;28;20098;-37
2023/09/13 10:25:12;;;;;;;15.75;4.13;;;;;;;;;;5071788;28;20029;-37
2023/09/13 10:27:40;;;;;;;22.35;4.57;;;;;;;;;;5069675;28;20024;-38
2023/09/13 10:30:08;;;;;;;26.48;4.43;;;;;;;;;;5070514;28;20029;-39
2023/09/13 10:32:42;;;;;;;14.55;4.32;;;;;;;;;;5071143;28;20028;-39
2023/09/13 10:35:11;;;;;;;24.65;4.65;;;;;;;;;;5068091;28;20062;-37
2023/09/13 10:37:51;;;;;;;17.77;4.18;;;;;;;;;;5069830;28;20539;-38
2023/09/13 10:40:27;;;;;;;26.35;4.32;;;;;;;;;;5071350;28;20094;-38
2023/09/13 10:42:56;;;;;;;19.13;4.65;;;;;;;;;;5071215;28;20112;-40
2023/09/13 10:45:24;;;;;;;23.67;4.00;;;;;;;;;;5070182;28;20043;-38
2023/09/13 10:47:52;;;;;;;26.55;5.03;;;;;;;;;;5070389;28;20037;-38
2023/09/13 10:50:19;;;;;;;20.33;4.22;;;;;;;;;;5069253;28;20041;-38
2023/09/13 10:52:47;;;;;;;21.08;4.55;;;;;;;;;;5070622;28;20049;-38
2023/09/13 10:55:14;;;;;;;23.30;4.57;;;;;;;;;;5070782;28;20115;-38
2023/09/13 10:57:41;;;;;;;25.23;4.97;;;;;;;;;;5070721;28;20036;-38
2023/09/13 11:00:10;;;;;;;17.90;3.75;;;;;;;;;;5070678;28;20056;-38
2023/09/13 11:02:43;;;;;;;22.92;4.05;;;;;;;;;;5070577;28;20367;-38
2023/09/13 11:05:11;;;;;;;18.23;4.05;;;;;;;;;;5070276;28;20029;-38
2023/09/13 11:07:43;;;;;;;18.58;4.57;;;;;;;;;;5070585;28;20048;-38
2023/09/13 11:10:14;;;;;;;19.23;3.80;;;;;;;;;;5070596;28;20537;-38
2023/09/13 11:12:59;;;;;;;25.50;4.50;;;;;;;;;;5070601;28;20036;-38
2023/09/13 11:15:27;;;;;;;18.27;3.60;;;;;;;;;;5070400;28;20072;-38
2023/09/13 11:17:55;;;;;;;25.85;4.65;;;;;;;;;;5070494;28;20082;-38
2023/09/13 11:20:22;;;;;;;19.48;4.25;;;;;;;;;;5070477;28;20047;-38
2023/09/13 11:23:14;;;;;;;16.95;3.90;;;;;;;;;;5070419;28;20039;-38
2023/09/13 11:25:43;;;;;;;24.50;4.05;;;;;;;;;;5070262;28;20078;-38
2023/09/13 11:28:29;;;;;;;22.58;3.95;;;;;;;;;;5070440;28;20120;-38
2023/09/13 11:31:01;;;;;;;24.48;3.72;;;;;;;;;;5070364;28;20063;-39
2023/09/13 11:33:28;;;;;;;22.38;3.67;;;;;;;;;;5052221;28;20032;-38
2023/09/13 11:35:59;;;;;;;16.92;3.50;;;;;;;;;;5070140;28;20105;-38
2023/09/13 11:38:27;;;;;;;22.20;3.38;;;;;;;;;;5070290;28;20542;-38
2023/09/13 11:40:57;;;;;;;16.10;3.60;;;;;;;;;;5070286;28;20074;-38
2023/09/13 11:43:26;;;;;;;20.77;3.58;;;;;;;;;;4907747;28;4641893;-38
2023/09/13 11:45:56;;;;;;;43.90;4.63;;;;;;;;;;5071759;28;20025;-39
2023/09/13 11:48:29;;;;;;;27.77;4.15;;;;;;;;;;5074798;28;20037;-38
2023/09/13 11:50:58;;;;;;;33.80;3.63;;;;;;;;;;5074954;28;20024;-38
2023/09/13 11:53:27;;;;;;;19.40;3.30;;;;;;;;;;5074806;28;20029;-38
2023/09/13 11:55:55;;;;;;;36.45;3.90;;;;;;;;;;5066688;28;20486;-38
2023/09/13 11:58:32;;;;;;;27.55;3.38;;;;;;;;;;5074780;28;20037;-38
2023/09/13 12:01:00;;;;;;;29.33;4.00;;;;;;;;;;5056689;28;20033;-38
2023/09/13 12:03:31;;;;;;;29.33;3.28;;;;;;;;;;5074409;28;20174;-38
2023/09/13 12:05:58;;;;;;;23.13;3.75;;;;;;;;;;5074614;28;20028;-38
2023/09/13 12:08:27;;;;;;;26.95;3.70;;;;;;;;;;5074534;28;20024;-38
2023/09/13 12:10:58;;;;;;;27.52;3.47;;;;;;;;;;5074424;28;20028;-38
2023/09/13 12:13:41;;;;;;;28.25;3.80;;;;;;;;;;5074364;28;20178;-38
2023/09/13 12:16:08;;;;;;;34.88;3.90;;;;;;;;;;5074338;28;20052;-38
2023/09/13 12:18:35;;;;;;;34.65;3.70;;;;;;;;;;5074376;28;20527;-38
2023/09/13 12:21:02;;;;;;;56.08;4.72;;;;;;;;;;5074235;28;20028;-38
2023/09/13 12:23:33;;;;;;;30.30;4.20;;;;;;;;;;5073910;28;20437;-38
2023/09/13 12:26:00;;;;;;;42.30;4.38;;;;;;;;;;5074158;28;20016;-38
2023/09/13 12:28:28;;;;;;;39.72;4.35;;;;;;;;;;5074134;28;20086;-38
2023/09/13 12:30:56;;;;;;;69.32;5.53;;;;;;;;;;5074026;28;20524;-38
2023/09/13 12:33:23;;;;;;;65.22;5.97;;;;;;;;;;5074096;28;20067;-38
2023/09/13 12:35:51;;;;;;;57.00;5.32;;;;;;;;;;5065586;28;20064;-38
2023/09/13 12:38:19;;;;;;;50.80;5.00;;;;;;;;;;5073510;28;20021;-39
2023/09/13 12:40:56;;;;;;;34.88;4.57;;;;;;;;;;5067811;28;20041;-36
2023/09/13 12:43:27;;;;;;;39.60;3.90;;;;;;;;;;5065769;28;20045;-43
2023/09/13 12:45:55;;;;;;;96.32;7.18;;;;;;;;;;5053680;28;20039;-40
2023/09/13 12:48:22;;;;;;;78.15;6.43;;;;;;;;;;5053605;28;20033;-38
2023/09/13 12:50:49;;;;;;;78.82;6.68;;;;;;;;;;5052069;28;20028;-40
2023/09/13 12:53:16;;;;;;;64.80;6.50;;;;;;;;;;5053391;28;20047;-40
2023/09/13 12:55:43;;;;;;;48.95;4.95;;;;;;;;;;5053506;28;20059;-40
2023/09/13 12:58:11;;;;;;;70.72;6.15;;;;;;;;;;5053428;28;20433;-40
2023/09/13 13:00:51;;;;;;;42.15;4.28;;;;;;;;;;5052120;28;20035;-39
2023/09/13 13:03:19;;;;;;;81.15;7.22;;;;;;;;;;5053145;28;20271;-41
2023/09/13 13:05:46;;;;;;;81.85;6.65;;;;;;;;;;5053156;28;20021;-39
2023/09/13 13:08:14;;;;;;;55.45;5.65;;;;;;;;;;5053276;28;20094;-39
2023/09/13 13:10:58;;;;;;;51.88;5.88;;;;;;;;;;5051646;28;20041;-40
2023/09/13 13:13:33;;;;;;;61.55;6.15;;;;;;;;;;5052739;28;20031;-40
2023/09/13 13:16:01;;;;;;;53.38;6.47;;;;;;;;;;5052905;28;20061;-40
2023/09/13 13:18:28;;;;;;;63.10;5.95;;;;;;;;;;5052536;28;20434;-38
2023/09/13 13:20:55;;;;;;;70.35;6.53;;;;;;;;;;5051642;28;20040;-38
2023/09/13 13:23:25;;;;;;;46.22;5.35;;;;;;;;;;5052617;28;20124;-38
2023/09/13 13:25:52;;;;;;;40.55;5.00;;;;;;;;;;5052099;28;20086;-38
2023/09/13 13:28:19;;;;;;;56.60;6.32;;;;;;;;;;5052773;28;20439;-39
2023/09/13 13:30:47;;;;;;;44.40;6.03;;;;;;;;;;5052990;28;20114;-39
2023/09/13 13:33:14;;;;;;;50.90;5.30;;;;;;;;;;5051181;28;20025;-39
2023/09/13 13:35:41;;;;;;;35.97;5.28;;;;;;;;;;5052705;28;20103;-39
2023/09/13 13:38:08;;;;;;;43.45;5.53;;;;;;;;;;5051906;28;20040;-39
2023/09/13 13:40:35;;;;;;;47.97;5.43;;;;;;;;;;5052591;28;20060;-39
2023/09/13 13:43:02;;;;;;;40.80;5.72;;;;;;;;;;5050775;28;20040;-39
2023/09/13 13:45:29;;;;;;;34.67;5.22;;;;;;;;;;5052632;28;20033;-39
2023/09/13 13:47:56;;;;;;;49.92;6.28;;;;;;;;;;5052673;28;20091;-39
2023/09/13 13:50:23;;;;;;;52.25;5.95;;;;;;;;;;5052380;28;20025;-39
2023/09/13 13:52:50;;;;;;;47.67;5.15;;;;;;;;;;5052566;28;20550;-40
2023/09/13 13:55:17;;;;;;;49.70;5.63;;;;;;;;;;5052559;28;20045;-39
2023/09/13 13:57:45;;;;;;;43.50;5.68;;;;;;;;;;5052537;28;20045;-40
2023/09/13 14:00:13;;;;;;;49.03;5.50;;;;;;;;;;5052386;28;20043;-39
2023/09/13 14:02:40;;;;;;;52.45;5.45;;;;;;;;;;5052213;28;20025;-40
2023/09/13 14:05:08;;;;;;;52.85;5.68;;;;;;;;;;5052219;28;20033;-40
2023/09/13 14:07:35;;;;;;;49.28;6.70;;;;;;;;;;5052271;28;20041;-39
2023/09/13 14:10:02;;;;;;;58.40;7.00;;;;;;;;;;5051829;28;20028;-39
2023/09/13 14:12:29;;;;;;;60.38;7.03;;;;;;;;;;5052320;28;20568;-39
2023/09/13 14:14:56;;;;;;;48.22;6.38;;;;;;;;;;5052122;28;20033;-39
2023/09/13 14:17:23;;;;;;;53.60;6.47;;;;;;;;;;5052128;28;20059;-40
2023/09/13 14:19:50;;;;;;;64.63;7.45;;;;;;;;;;5052003;28;20029;-39
2023/09/13 14:22:17;;;;;;;57.72;7.22;;;;;;;;;;5051999;28;20089;-39
2023/09/13 14:24:44;;;;;;;64.38;6.15;;;;;;;;;;5051745;28;20616;-39
2023/09/13 14:27:11;;;;;;;47.72;5.35;;;;;;;;;;5052236;28;20357;-40
2023/09/13 14:29:38;;;;;;;91.88;9.15;;;;;;;;;;5051976;28;20085;-39